createdAt,value
2022-10-26T00:01:17.689Z,99416.38
2022-10-26T00:03:46.164Z,99411.25
2022-10-26T00:06:22.067Z,99409.44
2022-10-26T00:08:49.483Z,99419.56
2022-10-26T00:11:17.165Z,99405.53
2022-10-26T00:13:44.096Z,99410.09
2022-10-26T00:16:14.069Z,99410.75
2022-10-26T00:18:41.168Z,99408.28
2022-10-26T00:21:09.510Z,99411.69
2022-10-26T00:23:36.732Z,99416.06
2022-10-26T00:26:03.583Z,99416.16
2022-10-26T00:28:30.295Z,99412.47
2022-10-26T00:31:05.977Z,99411.34
2022-10-26T00:33:33.052Z,99410.22
2022-10-26T00:35:59.856Z,99405.94
2022-10-26T00:38:26.667Z,99414.34
2022-10-26T00:40:53.474Z,99414.97
2022-10-26T00:43:20.212Z,99415.81
2022-10-26T00:45:48.457Z,99419.22
2022-10-26T00:48:27.406Z,99416.38
2022-10-26T00:50:54.717Z,99417.41
2022-10-26T00:53:21.538Z,99422.72
2022-10-26T00:55:51.044Z,99421.59
2022-10-26T00:58:19.755Z,99417.91
2022-10-26T01:00:48.111Z,99413.72
2022-10-26T01:03:16.235Z,99415.44
2022-10-26T01:05:46.003Z,99419.88
2022-10-26T01:08:14.420Z,99423.41
2022-10-26T01:10:42.736Z,99425.19
2022-10-26T01:13:09.985Z,99424.53
2022-10-26T01:15:44.038Z,99426.91
2022-10-26T01:18:17.214Z,99423.31
2022-10-26T01:21:06.911Z,99422.94
2022-10-26T01:23:56.561Z,99427.31
2022-10-26T01:27:01.700Z,99418.50
2022-10-26T01:30:11.373Z,99419.06
2022-10-26T01:32:59.496Z,99419.91
2022-10-26T01:35:39.660Z,99416.31
2022-10-26T01:38:11.042Z,99420.72
2022-10-26T01:40:44.827Z,99417.88
2022-10-26T01:43:14.143Z,99423.06
2022-10-26T01:45:46.188Z,99418.72
2022-10-26T01:48:16.285Z,99417.88
2022-10-26T01:50:47.766Z,99419.38
2022-10-26T01:53:16.016Z,99422.78
2022-10-26T01:55:52.830Z,99426.31
2022-10-26T01:59:00.944Z,99421.94
2022-10-26T02:02:01.164Z,99423.66
2022-10-26T02:04:47.042Z,99429.00
2022-10-26T02:08:07.871Z,99433.44
2022-10-26T02:10:54.229Z,99427.19
2022-10-26T02:13:25.816Z,99441.13
2022-10-26T02:16:17.290Z,99428.81
2022-10-26T02:18:46.801Z,99433.06
2022-10-26T02:21:18.420Z,99438.28
2022-10-26T02:23:47.359Z,99441.81
2022-10-26T02:26:18.113Z,99432.13
2022-10-26T02:28:50.053Z,99446.00
2022-10-26T02:31:19.710Z,99441.13
2022-10-26T02:33:50.826Z,99440.94
2022-10-26T02:36:24.241Z,99441.53
2022-10-26T02:38:53.236Z,99444.09
2022-10-26T02:41:22.592Z,99448.47
2022-10-26T02:43:55.762Z,99442.22
2022-10-26T02:46:26.537Z,99437.75
2022-10-26T02:48:53.947Z,99442.22
2022-10-26T02:51:23.403Z,99439.84
2022-10-26T02:54:14.746Z,99449.22
2022-10-26T02:57:00.799Z,99457.28
2022-10-26T02:59:31.530Z,99449.31
2022-10-26T03:01:58.512Z,99450.84
2022-10-26T03:04:30.593Z,99451.78
2022-10-26T03:06:57.485Z,99449.78
2022-10-26T03:09:25.695Z,99450.09
2022-10-26T03:11:53.001Z,99452.59
2022-10-26T03:14:20.628Z,99459.59
2022-10-26T03:16:47.489Z,99452.38
2022-10-26T03:19:14.301Z,99451.53
2022-10-26T03:21:42.366Z,99451.38
2022-10-26T03:24:10.185Z,99452.38
2022-10-26T03:26:37.237Z,99454.97
2022-10-26T03:29:04.367Z,99457.53
2022-10-26T03:31:31.095Z,99454.13
2022-10-26T03:33:57.871Z,99454.88
2022-10-26T03:36:24.593Z,99460.44
2022-10-26T03:38:51.377Z,99460.34
2022-10-26T03:41:18.077Z,99461.25
2022-10-26T03:43:44.793Z,99460.09
2022-10-26T03:46:11.490Z,99453.66
2022-10-26T03:48:38.338Z,99452.91
2022-10-26T03:51:05.167Z,99456.31
2022-10-26T03:53:32.049Z,99454.59
2022-10-26T03:55:58.851Z,99454.50
2022-10-26T04:00:57.312Z,99453.66
2022-10-26T04:03:24.101Z,99458.31
2022-10-26T04:05:50.960Z,99451.94
2022-10-26T04:08:17.690Z,99443.78
2022-10-26T04:10:45.875Z,99456.22
2022-10-26T04:13:12.592Z,99453.28
2022-10-26T04:15:39.368Z,99451.66
2022-10-26T04:18:06.236Z,99456.44
2022-10-26T04:20:34.752Z,99458.63
2022-10-26T04:23:04.168Z,99448.84
2022-10-26T04:25:33.297Z,99452.34
2022-10-26T04:28:02.511Z,99445.31
2022-10-26T04:30:29.760Z,99452.72
2022-10-26T04:32:56.638Z,99448.44
2022-10-26T04:35:23.679Z,99442.28
2022-10-26T04:37:50.565Z,99444.06
2022-10-26T04:40:17.448Z,99448.72
2022-10-26T04:42:46.367Z,99447.00
2022-10-26T04:45:15.058Z,99441.88
2022-10-26T04:47:42.572Z,99446.34
2022-10-26T04:50:11.559Z,99443.88
2022-10-26T04:52:38.518Z,99448.44
2022-10-26T04:55:06.321Z,99452.91
2022-10-26T04:57:34.408Z,99450.25
2022-10-26T05:00:02.242Z,99448.44
2022-10-26T05:02:29.548Z,99450.25
2022-10-26T05:04:56.639Z,99461.81
2022-10-26T05:07:23.685Z,99453.84
2022-10-26T05:09:50.434Z,99460.78
2022-10-26T05:12:17.244Z,99466.97
2022-10-26T05:14:43.914Z,99466.97
2022-10-26T05:17:10.796Z,99470.66
2022-10-26T05:19:37.640Z,99466.97
2022-10-26T05:22:04.687Z,99473.03
2022-10-26T05:24:31.451Z,99465.16
2022-10-26T05:26:58.362Z,99467.63
2022-10-26T05:29:25.082Z,99476.34
2022-10-26T05:31:52.302Z,99478.25
2022-10-26T05:34:19.047Z,99477.50
2022-10-26T05:36:45.880Z,99481.75
2022-10-26T05:39:12.550Z,99477.50
2022-10-26T05:41:39.299Z,99481.00
2022-10-26T05:44:06.092Z,99478.34
2022-10-26T05:46:32.887Z,99480.75
2022-10-26T05:48:59.577Z,99488.44
2022-10-26T05:51:26.469Z,99479.53
2022-10-26T05:53:55.676Z,99481.97
2022-10-26T05:56:36.860Z,99485.03
2022-10-26T05:59:10.346Z,99491.03
2022-10-26T06:02:19.308Z,99489.97
2022-10-26T06:04:50.728Z,99484.63
2022-10-26T06:07:22.651Z,99495.97
2022-10-26T06:09:49.968Z,99494.53
2022-10-26T06:12:19.492Z,99494.25
2022-10-26T06:14:47.090Z,99481.69
2022-10-26T06:17:38.686Z,99495.69
2022-10-26T06:20:31.943Z,99491.59
2022-10-26T06:23:12.166Z,99496.44
2022-10-26T06:25:58.217Z,99493.88
2022-10-26T06:28:55.361Z,99505.16
2022-10-26T06:31:22.272Z,99506.28
2022-10-26T06:33:48.982Z,99506.97
2022-10-26T06:36:24.321Z,99510.09
2022-10-26T06:39:04.306Z,99517.31
2022-10-26T06:41:35.711Z,99512.66
2022-10-26T06:44:03.984Z,99519.13
2022-10-26T06:46:39.736Z,99521.31
2022-10-26T06:49:30.431Z,99526.66
2022-10-26T06:52:03.848Z,99530.06
2022-10-26T06:54:45.294Z,99527.50
2022-10-26T06:57:14.311Z,99524.72
2022-10-26T06:59:51.747Z,99531.03
2022-10-26T07:02:19.588Z,99524.44
2022-10-26T07:04:46.703Z,99533.41
2022-10-26T07:07:22.002Z,99530.03
2022-10-26T07:09:49.926Z,99530.03
2022-10-26T07:12:16.631Z,99532.78
2022-10-26T07:14:43.442Z,99538.03
2022-10-26T07:17:10.565Z,99537.56
2022-10-26T09:12:54.712Z,99586.63
2022-10-26T09:15:36.559Z,99592.47
2022-10-26T09:18:21.679Z,99592.16
2022-10-26T09:21:18.409Z,99592.22
2022-10-26T09:24:09.340Z,99595.97
2022-10-26T09:29:43.251Z,99595.56
2022-10-26T09:32:18.502Z,99593.13
2022-10-26T09:35:03.664Z,99596.97
2022-10-26T09:37:37.318Z,99598.50
2022-10-26T09:40:07.220Z,99599.97
2022-10-26T09:42:43.523Z,99599.31
2022-10-26T09:45:16.266Z,99604.22
2022-10-26T09:47:46.694Z,99597.50
2022-10-26T09:50:36.790Z,99593.28
2022-10-26T09:53:04.015Z,99598.34
2022-10-26T09:55:40.709Z,99598.56
2022-10-26T09:58:15.079Z,99601.59
2022-10-26T10:00:42.955Z,99591.88
2022-10-26T10:03:26.816Z,99597.56
2022-10-26T10:05:54.902Z,99591.56
2022-10-26T10:08:27.450Z,99597.78
2022-10-26T10:11:00.055Z,99591.09
2022-10-26T10:13:30.263Z,99593.44
2022-10-26T10:16:23.991Z,99597.91
2022-10-26T10:19:22.033Z,99595.91
2022-10-26T10:21:51.341Z,99586.13
2022-10-26T10:24:38.156Z,99594.97
2022-10-26T10:27:17.688Z,99596.34
2022-10-26T10:29:59.770Z,99595.78
2022-10-26T10:32:35.684Z,99604.19
2022-10-26T10:35:23.724Z,99594.63
2022-10-26T10:37:51.516Z,99603.94
2022-10-26T10:40:21.966Z,99601.06
2022-10-26T10:42:51.416Z,99607.56
2022-10-26T10:45:28.064Z,99611.75
2022-10-26T10:48:28.792Z,99604.38
2022-10-26T10:51:23.984Z,99599.75
2022-10-26T10:53:53.953Z,99603.34
2022-10-26T10:56:30.000Z,99607.16
2022-10-26T10:59:05.704Z,99604.50
2022-10-26T11:01:48.765Z,99605.63
2022-10-26T11:04:23.534Z,99600.25
2022-10-26T11:06:52.124Z,99600.22
2022-10-26T11:09:25.645Z,99593.03
2022-10-26T11:12:00.572Z,99586.38
2022-10-26T11:14:32.878Z,99591.09
2022-10-26T11:17:08.239Z,99592.22
2022-10-26T11:19:43.057Z,99579.09
2022-10-26T11:22:22.368Z,99584.69
2022-10-26T11:25:02.684Z,99580.56
2022-10-26T11:27:47.549Z,99585.06
2022-10-26T11:30:21.491Z,99586.59
2022-10-26T11:32:54.973Z,99584.81
2022-10-26T11:35:31.314Z,99580.34
2022-10-26T11:38:20.740Z,99592.19
2022-10-26T11:41:06.363Z,99596.16
2022-10-26T11:43:45.147Z,99595.91
2022-10-26T11:46:52.251Z,99593.56
2022-10-26T11:49:28.248Z,99598.13
2022-10-26T11:52:07.119Z,99590.81
2022-10-26T11:54:52.189Z,99592.28
2022-10-26T11:57:21.560Z,99595.88
2022-10-26T11:59:53.782Z,99602.16
2022-10-26T12:02:25.559Z,99596.22
2022-10-26T12:05:00.111Z,99607.91
2022-10-26T12:07:31.329Z,99598.88
2022-10-26T12:10:01.538Z,99612.69
2022-10-26T12:12:54.189Z,99616.78
2022-10-26T12:15:35.383Z,99614.63
2022-10-26T12:18:43.132Z,99621.25
2022-10-26T12:21:13.877Z,99623.81
2022-10-26T12:24:00.349Z,99625.41
2022-10-26T12:26:27.067Z,99633.75
2022-10-26T12:29:02.898Z,99641.00
2022-10-26T12:31:32.629Z,99649.28
2022-10-26T12:34:00.425Z,99645.16
2022-10-26T12:36:48.670Z,99645.63
2022-10-26T12:39:37.800Z,99644.72
2022-10-26T12:42:10.484Z,99649.69
2022-10-26T12:44:39.682Z,99646.56
2022-10-26T12:47:10.080Z,99646.00
2022-10-26T12:50:01.635Z,99654.19
2022-10-26T12:52:40.814Z,99650.72
2022-10-26T12:55:07.493Z,99649.16
2022-10-26T12:57:52.490Z,99648.56
2022-10-26T13:00:24.955Z,99658.59
2022-10-26T13:45:07.918Z,99707.38
2022-10-26T13:47:56.748Z,99708.28
2022-10-26T13:50:49.905Z,99713.25
2022-10-26T13:53:23.303Z,99704.47
2022-10-26T13:56:22.141Z,99703.19
2022-10-26T13:59:02.990Z,99711.50
2022-10-26T14:01:30.740Z,99715.81
2022-10-26T14:03:58.285Z,99719.06
2022-10-26T14:06:38.535Z,99717.09
2022-10-26T14:09:11.419Z,99725.00
2022-10-26T14:11:54.249Z,99723.09
2022-10-26T14:14:28.413Z,99730.69
2022-10-26T14:16:56.682Z,99729.56
2022-10-26T14:19:28.299Z,99735.50
2022-10-26T14:21:56.212Z,99730.16
2022-10-26T14:24:47.344Z,99739.50
2022-10-26T14:27:19.843Z,99736.94
2022-10-26T14:30:03.659Z,99739.59
2022-10-26T14:32:34.166Z,99751.28
2022-10-26T14:35:00.956Z,99754.03
2022-10-26T14:37:49.149Z,99755.28
2022-10-26T14:40:18.554Z,99759.69
2022-10-26T14:42:53.282Z,99760.53
2022-10-26T14:45:29.883Z,99761.19
2022-10-26T14:48:21.378Z,99775.19
2022-10-26T14:51:21.644Z,99769.72
2022-10-26T14:53:53.913Z,99776.03
2022-10-26T14:56:46.712Z,99774.31
2022-10-26T16:32:51.447Z,99885.25
2022-10-26T16:35:18.543Z,99885.47
2022-10-26T16:37:46.009Z,99883.84
2022-10-26T16:40:30.068Z,99882.97
2022-10-26T16:42:56.986Z,99879.53
2022-10-26T16:45:23.845Z,99880.72
2022-10-26T16:47:50.984Z,99891.44
2022-10-26T16:50:21.187Z,99890.88
2022-10-26T16:52:48.047Z,99893.63
2022-10-26T16:55:15.619Z,99899.38
2022-10-26T16:57:42.382Z,99899.72
2022-10-26T17:00:09.745Z,99904.59
2022-10-26T17:02:36.616Z,99909.56
2022-10-26T17:05:06.925Z,99900.69
2022-10-26T17:07:34.747Z,99907.53
2022-10-26T17:10:01.722Z,99904.75
2022-10-26T17:12:28.538Z,99899.44
2022-10-26T17:14:56.413Z,99903.63
2022-10-26T17:17:23.287Z,99912.06
2022-10-26T17:19:50.273Z,99905.03
2022-10-26T17:22:17.065Z,99911.13
2022-10-26T17:24:43.812Z,99914.50
2022-10-26T17:27:10.808Z,99910.19
2022-10-26T17:29:37.584Z,99917.00
2022-10-26T17:32:04.423Z,99908.34
2022-10-26T17:34:31.265Z,99910.91
2022-10-26T17:36:58.063Z,99911.78
2022-10-26T17:39:24.860Z,99911.41
2022-10-26T17:41:51.837Z,99913.03
2022-10-26T17:44:18.694Z,99915.13
2022-10-26T17:46:45.703Z,99911.34
2022-10-26T17:49:12.502Z,99921.47
2022-10-26T17:51:39.281Z,99926.66
2022-10-26T17:54:06.126Z,99931.50
2022-10-26T17:56:34.280Z,99929.66
2022-10-26T17:59:03.378Z,99928.78
2022-10-26T18:01:31.846Z,99936.88
2022-10-26T18:03:59.171Z,99935.81
2022-10-26T18:06:25.969Z,99936.66
2022-10-26T18:08:52.834Z,99942.72
2022-10-26T18:11:26.226Z,99939.94
2022-10-26T18:13:55.242Z,99936.38
2022-10-26T18:16:23.212Z,99941.91
2022-10-26T18:19:01.720Z,99940.47
2022-10-26T18:21:30.771Z,99946.78
2022-10-26T18:23:57.730Z,99945.22
2022-10-26T18:26:26.920Z,99952.31
2022-10-26T18:28:55.461Z,99953.53
2022-10-26T18:31:24.138Z,99958.28
2022-10-26T18:34:06.026Z,99945.19
2022-10-26T18:36:33.249Z,99961.03
2022-10-26T18:39:00.448Z,99964.09
2022-10-26T18:41:27.907Z,99967.19
2022-10-26T18:43:59.731Z,99967.88
2022-10-26T18:46:29.164Z,99971.66
2022-10-26T18:48:57.229Z,99975.16
2022-10-26T18:51:28.691Z,99973.66
2022-10-26T18:53:56.944Z,99984.41
2022-10-26T18:56:25.143Z,99988.84
2022-10-26T18:58:55.515Z,99993.13
2022-10-26T19:01:25.214Z,99993.00
2022-10-26T19:04:00.441Z,100002.63
2022-10-26T19:06:30.106Z,100001.53
2022-10-26T19:08:57.160Z,100000.44
2022-10-26T19:11:26.410Z,99996.88
2022-10-26T19:13:54.146Z,100005.81
2022-10-26T19:19:10.715Z,100009.94
2022-10-26T19:21:37.703Z,100003.03
2022-10-26T19:24:04.865Z,100008.31
2022-10-26T19:26:38.756Z,100008.38
2022-10-26T19:29:08.330Z,100010.13
2022-10-26T19:31:38.440Z,100010.00
2022-10-26T19:34:06.158Z,100011.63
2022-10-26T19:36:33.500Z,100015.13
2022-10-26T19:39:00.538Z,100014.28
2022-10-26T19:41:28.273Z,100015.06
2022-10-26T19:43:56.602Z,100021.06
2022-10-26T19:46:26.515Z,100019.19
2022-10-26T19:48:55.944Z,100018.28
2022-10-26T19:51:23.743Z,100026.16
2022-10-26T19:53:50.561Z,100027.59
2022-10-26T19:56:17.624Z,100032.97
2022-10-26T19:58:44.807Z,100040.88
2022-10-26T20:01:13.181Z,100040.94
2022-10-26T20:03:40.114Z,100035.88
2022-10-26T20:06:12.730Z,100036.16
2022-10-26T20:08:45.179Z,100041.88
2022-10-26T20:11:15.562Z,100046.63
2022-10-26T20:13:44.004Z,100045.41
2022-10-26T20:16:12.023Z,100044.69
2022-10-26T20:18:43.919Z,100046.88
2022-10-26T20:21:14.972Z,100050.56
2022-10-26T20:23:42.794Z,100057.91
2022-10-26T20:26:11.866Z,100059.03
2022-10-26T20:28:45.226Z,100061.03
2022-10-26T20:31:13.243Z,100058.59
2022-10-26T20:33:40.081Z,100068.59
2022-10-26T20:36:07.307Z,100058.13
2022-10-26T20:38:34.482Z,100061.09
2022-10-26T20:41:04.850Z,100063.88
2022-10-26T20:43:35.463Z,100066.59
2022-10-26T20:46:02.397Z,100063.38
2022-10-26T20:48:29.485Z,100064.22
2022-10-26T20:51:06.451Z,100069.88
2022-10-26T20:53:59.535Z,100063.06
2022-10-26T20:56:26.799Z,100069.44
2022-10-26T20:58:58.898Z,100064.19
2022-10-26T21:01:38.314Z,100067.97
2022-10-26T21:04:05.388Z,100070.72
2022-10-26T21:06:40.097Z,100077.91
2022-10-26T21:09:07.972Z,100073.59
2022-10-26T21:11:34.866Z,100073.59
2022-10-26T21:14:03.307Z,100077.09
2022-10-26T21:16:30.109Z,100068.34
2022-10-26T21:18:57.073Z,100079.72
2022-10-26T21:21:23.751Z,100072.84
2022-10-26T21:23:50.495Z,100082.66
2022-10-26T21:26:17.228Z,100074.03
2022-10-26T21:28:45.946Z,100078.47
2022-10-26T21:31:15.559Z,100069.84
2022-10-26T21:33:42.966Z,100073.22
2022-10-26T21:36:12.388Z,100073.22
2022-10-26T21:38:41.208Z,100075.97
2022-10-26T21:41:19.205Z,100079.44
2022-10-26T21:43:59.092Z,100077.88
2022-10-26T21:46:36.933Z,100072.75
2022-10-26T21:49:03.924Z,100080.78
2022-10-26T21:51:30.707Z,100085.22
2022-10-26T21:53:58.443Z,100089.59
2022-10-26T21:56:25.221Z,100091.22
2022-10-26T21:58:51.957Z,100092.81
2022-10-26T22:01:21.047Z,100092.75
2022-10-26T22:03:49.056Z,100098.28
2022-10-26T22:08:48.376Z,100108.03
2022-10-26T22:11:21.178Z,100106.22
2022-10-26T22:13:48.671Z,100105.50
2022-10-26T22:16:24.820Z,100110.16
2022-10-26T22:18:54.243Z,100107.66
2022-10-26T22:21:23.681Z,100109.44
2022-10-26T22:23:50.419Z,100108.69
2022-10-26T22:26:19.925Z,100112.34
2022-10-26T22:28:48.511Z,100116.03
2022-10-26T22:31:18.368Z,100109.06
2022-10-26T22:33:46.137Z,100116.25
2022-10-26T22:36:15.412Z,100122.47
2022-10-26T22:38:42.529Z,100120.91
2022-10-26T22:41:10.296Z,100113.13
2022-10-26T22:43:37.536Z,100121.22
2022-10-26T22:46:10.319Z,100116.03
2022-10-26T22:48:37.402Z,100124.06
2022-10-26T22:51:18.639Z,100112.84
2022-10-26T22:53:46.451Z,100119.84
2022-10-26T22:56:14.449Z,100115.41
2022-10-26T22:58:41.330Z,100114.56
2022-10-26T23:01:13.953Z,100114.53
2022-10-26T23:03:40.838Z,100124.25
2022-10-26T23:06:09.830Z,100120.81
2022-10-26T23:08:36.580Z,100119.94
2022-10-26T23:11:06.094Z,100123.44
2022-10-26T23:13:32.892Z,100123.31
2022-10-26T23:16:06.427Z,100126.91
2022-10-26T23:18:34.469Z,100126.91
2022-10-26T23:21:02.217Z,100129.69
2022-10-26T23:23:29.164Z,100131.50
2022-10-26T23:26:03.499Z,100122.72
2022-10-26T23:28:30.293Z,100135.09
2022-10-26T23:30:57.235Z,100128.91
2022-10-26T23:33:24.078Z,100139.50
2022-10-26T23:35:54.444Z,100146.56
2022-10-26T23:38:21.634Z,100140.38
2022-10-26T23:40:59.539Z,100145.63
2022-10-26T23:43:27.387Z,100141.22
2022-10-26T23:45:55.457Z,100148.28
2022-10-26T23:48:22.911Z,100147.38
2022-10-26T23:50:50.818Z,100159.81
2022-10-26T23:53:20.054Z,100149.16
2022-10-26T23:55:47.537Z,100152.69
2022-10-26T23:58:15.453Z,100153.50
